sensor_id;sensor_type;location;lat;lon;timestamp;temperature;humidity
15636;DHT22;7917;50.818;6.972;2023-08-17T00:02:11;19.30;99.90
15636;DHT22;7917;50.818;6.972;2023-08-17T00:04:38;19.40;99.90
15636;DHT22;7917;50.818;6.972;2023-08-17T00:07:04;19.40;99.90
15636;DHT22;7917;50.818;6.972;2023-08-17T00:09:31;19.30;99.90
15636;DHT22;7917;50.818;6.972;2023-08-17T00:11:58;19.40;99.90
15636;DHT22;7917;50.818;6.972;2023-08-17T00:14:26;19.40;99.90
15636;DHT22;7917;50.818;6.972;2023-08-17T00:16:53;19.40;99.90
15636;DHT22;7917;50.818;6.972;2023-08-17T00:19:20;19.40;99.90
15636;DHT22;7917;50.818;6.972;2023-08-17T00:21:46;19.40;99.90
15636;DHT22;7917;50.818;6.972;2023-08-17T00:24:13;19.40;99.90
15636;DHT22;7917;50.818;6.972;2023-08-17T00:26:40;19.40;99.90
15636;DHT22;7917;50.818;6.972;2023-08-17T00:29:07;19.40;99.90
15636;DHT22;7917;50.818;6.972;2023-08-17T00:31:34;19.50;99.90
15636;DHT22;7917;50.818;6.972;2023-08-17T00:34:01;19.50;99.90
15636;DHT22;7917;50.818;6.972;2023-08-17T00:36:28;19.50;99.90
15636;DHT22;7917;50.818;6.972;2023-08-17T00:38:54;19.50;99.90
15636;DHT22;7917;50.818;6.972;2023-08-17T00:41:21;19.50;99.90
15636;DHT22;7917;50.818;6.972;2023-08-17T00:43:48;19.40;99.90
15636;DHT22;7917;50.818;6.972;2023-08-17T00:46:15;19.50;99.90
15636;DHT22;7917;50.818;6.972;2023-08-17T00:48:43;19.40;99.90
15636;DHT22;7917;50.818;6.972;2023-08-17T00:51:10;19.40;99.90
15636;DHT22;7917;50.818;6.972;2023-08-17T00:53:37;19.40;99.90
15636;DHT22;7917;50.818;6.972;2023-08-17T00:56:04;19.40;99.90
15636;DHT22;7917;50.818;6.972;2023-08-17T00:58:32;19.40;99.90
15636;DHT22;7917;50.818;6.972;2023-08-17T01:00:59;19.30;99.90
15636;DHT22;7917;50.818;6.972;2023-08-17T01:03:28;19.30;99.90
15636;DHT22;7917;50.818;6.972;2023-08-17T01:05:56;19.20;99.90
15636;DHT22;7917;50.818;6.972;2023-08-17T01:08:23;19.20;99.90
15636;DHT22;7917;50.818;6.972;2023-08-17T01:10:55;19.10;99.90
15636;DHT22;7917;50.818;6.972;2023-08-17T01:13:29;19.10;99.90
15636;DHT22;7917;50.818;6.972;2023-08-17T01:15:58;19.00;99.90
15636;DHT22;7917;50.818;6.972;2023-08-17T01:18:33;19.00;99.90
15636;DHT22;7917;50.818;6.972;2023-08-17T01:21:02;19.00;99.90
15636;DHT22;7917;50.818;6.972;2023-08-17T01:23:32;19.00;99.90
15636;DHT22;7917;50.818;6.972;2023-08-17T01:25:59;19.00;99.90
15636;DHT22;7917;50.818;6.972;2023-08-17T01:28:26;18.90;99.90
15636;DHT22;7917;50.818;6.972;2023-08-17T01:30:57;19.00;99.90
15636;DHT22;7917;50.818;6.972;2023-08-17T01:33:29;19.00;99.90
15636;DHT22;7917;50.818;6.972;2023-08-17T01:36:03;18.90;99.90
15636;DHT22;7917;50.818;6.972;2023-08-17T01:38:32;18.90;99.90
15636;DHT22;7917;50.818;6.972;2023-08-17T01:41:01;18.90;99.90
15636;DHT22;7917;50.818;6.972;2023-08-17T01:43:29;18.90;99.90
15636;DHT22;7917;50.818;6.972;2023-08-17T01:45:56;18.90;99.90
15636;DHT22;7917;50.818;6.972;2023-08-17T01:48:23;18.90;99.90
15636;DHT22;7917;50.818;6.972;2023-08-17T01:50:50;18.90;99.90
15636;DHT22;7917;50.818;6.972;2023-08-17T01:53:17;19.00;99.90
15636;DHT22;7917;50.818;6.972;2023-08-17T01:55:44;18.90;99.90
15636;DHT22;7917;50.818;6.972;2023-08-17T01:58:11;18.90;99.90
15636;DHT22;7917;50.818;6.972;2023-08-17T02:00:38;19.00;99.90
15636;DHT22;7917;50.818;6.972;2023-08-17T02:03:04;18.90;99.90
15636;DHT22;7917;50.818;6.972;2023-08-17T02:05:31;18.90;99.90
15636;DHT22;7917;50.818;6.972;2023-08-17T02:07:58;18.90;99.90
15636;DHT22;7917;50.818;6.972;2023-08-17T02:10:25;18.90;99.90
15636;DHT22;7917;50.818;6.972;2023-08-17T02:12:52;18.90;99.90
15636;DHT22;7917;50.818;6.972;2023-08-17T02:15:19;18.90;99.90
15636;DHT22;7917;50.818;6.972;2023-08-17T02:17:46;18.90;99.90
15636;DHT22;7917;50.818;6.972;2023-08-17T02:20:12;18.90;99.90
15636;DHT22;7917;50.818;6.972;2023-08-17T02:22:58;18.90;99.90
15636;DHT22;7917;50.818;6.972;2023-08-17T02:25:43;18.90;99.90
15636;DHT22;7917;50.818;6.972;2023-08-17T02:28:11;18.90;99.90
15636;DHT22;7917;50.818;6.972;2023-08-17T02:30:37;18.90;99.90
15636;DHT22;7917;50.818;6.972;2023-08-17T02:33:04;18.90;99.90
15636;DHT22;7917;50.818;6.972;2023-08-17T02:35:31;18.90;99.90
15636;DHT22;7917;50.818;6.972;2023-08-17T02:37:58;18.90;99.90
15636;DHT22;7917;50.818;6.972;2023-08-17T02:40:25;18.90;99.90
15636;DHT22;7917;50.818;6.972;2023-08-17T02:42:51;18.90;99.90
15636;DHT22;7917;50.818;6.972;2023-08-17T02:45:19;19.00;99.90
15636;DHT22;7917;50.818;6.972;2023-08-17T02:47:46;18.90;99.90
15636;DHT22;7917;50.818;6.972;2023-08-17T02:50:12;18.90;99.90
15636;DHT22;7917;50.818;6.972;2023-08-17T02:52:40;18.90;99.90
15636;DHT22;7917;50.818;6.972;2023-08-17T02:55:10;18.90;99.90
15636;DHT22;7917;50.818;6.972;2023-08-17T02:57:40;18.90;99.90
15636;DHT22;7917;50.818;6.972;2023-08-17T03:03:29;18.90;99.90
15636;DHT22;7917;50.818;6.972;2023-08-17T03:05:56;18.80;99.90
15636;DHT22;7917;50.818;6.972;2023-08-17T03:08:23;18.90;99.90
15636;DHT22;7917;50.818;6.972;2023-08-17T03:10:49;18.90;99.90
15636;DHT22;7917;50.818;6.972;2023-08-17T03:13:16;18.90;99.90
15636;DHT22;7917;50.818;6.972;2023-08-17T03:15:42;18.80;99.90
15636;DHT22;7917;50.818;6.972;2023-08-17T03:18:09;18.90;99.90
15636;DHT22;7917;50.818;6.972;2023-08-17T03:20:36;18.80;99.90
15636;DHT22;7917;50.818;6.972;2023-08-17T03:23:03;18.80;99.90
15636;DHT22;7917;50.818;6.972;2023-08-17T03:25:32;18.80;99.90
15636;DHT22;7917;50.818;6.972;2023-08-17T03:27:58;18.90;99.90
15636;DHT22;7917;50.818;6.972;2023-08-17T03:30:25;18.90;99.90
15636;DHT22;7917;50.818;6.972;2023-08-17T03:32:51;18.90;99.90
15636;DHT22;7917;50.818;6.972;2023-08-17T03:35:18;18.80;99.90
15636;DHT22;7917;50.818;6.972;2023-08-17T03:37:45;18.80;99.90
15636;DHT22;7917;50.818;6.972;2023-08-17T03:40:11;18.80;99.90
15636;DHT22;7917;50.818;6.972;2023-08-17T03:42:38;18.90;99.90
15636;DHT22;7917;50.818;6.972;2023-08-17T03:45:05;18.80;99.90
15636;DHT22;7917;50.818;6.972;2023-08-17T03:47:32;18.90;99.90
15636;DHT22;7917;50.818;6.972;2023-08-17T03:49:58;18.80;99.90
15636;DHT22;7917;50.818;6.972;2023-08-17T03:52:25;18.80;99.90
15636;DHT22;7917;50.818;6.972;2023-08-17T03:54:52;18.80;99.90
15636;DHT22;7917;50.818;6.972;2023-08-17T03:57:19;18.80;99.90
15636;DHT22;7917;50.818;6.972;2023-08-17T03:59:45;18.80;99.90
15636;DHT22;7917;50.818;6.972;2023-08-17T04:02:12;18.80;99.90
15636;DHT22;7917;50.818;6.972;2023-08-17T04:04:38;18.80;99.90
15636;DHT22;7917;50.818;6.972;2023-08-17T04:07:04;18.70;99.90
15636;DHT22;7917;50.818;6.972;2023-08-17T04:09:32;18.70;99.90
15636;DHT22;7917;50.818;6.972;2023-08-17T04:12:00;18.70;99.90
15636;DHT22;7917;50.818;6.972;2023-08-17T04:14:26;18.80;99.90
15636;DHT22;7917;50.818;6.972;2023-08-17T04:16:52;18.70;99.90
15636;DHT22;7917;50.818;6.972;2023-08-17T04:19:19;18.70;99.90
15636;DHT22;7917;50.818;6.972;2023-08-17T04:21:45;18.70;99.90
15636;DHT22;7917;50.818;6.972;2023-08-17T04:24:12;18.70;99.90
15636;DHT22;7917;50.818;6.972;2023-08-17T04:26:38;18.70;99.90
15636;DHT22;7917;50.818;6.972;2023-08-17T04:29:05;18.70;99.90
15636;DHT22;7917;50.818;6.972;2023-08-17T04:31:31;18.70;99.90
15636;DHT22;7917;50.818;6.972;2023-08-17T04:33:58;18.70;99.90
15636;DHT22;7917;50.818;6.972;2023-08-17T04:36:24;18.70;99.90
15636;DHT22;7917;50.818;6.972;2023-08-17T04:38:51;18.70;99.90
15636;DHT22;7917;50.818;6.972;2023-08-17T04:41:17;18.60;99.90
15636;DHT22;7917;50.818;6.972;2023-08-17T04:43:43;18.60;99.90
15636;DHT22;7917;50.818;6.972;2023-08-17T04:46:13;18.50;99.90
15636;DHT22;7917;50.818;6.972;2023-08-17T04:48:39;18.50;99.90
15636;DHT22;7917;50.818;6.972;2023-08-17T04:51:05;18.50;99.90
15636;DHT22;7917;50.818;6.972;2023-08-17T04:53:32;18.40;99.90
15636;DHT22;7917;50.818;6.972;2023-08-17T04:55:58;18.40;99.90
15636;DHT22;7917;50.818;6.972;2023-08-17T04:58:25;18.40;99.90
15636;DHT22;7917;50.818;6.972;2023-08-17T05:00:51;18.40;99.90
15636;DHT22;7917;50.818;6.972;2023-08-17T05:03:18;18.40;99.90
15636;DHT22;7917;50.818;6.972;2023-08-17T05:05:45;18.40;99.90
15636;DHT22;7917;50.818;6.972;2023-08-17T05:08:11;18.40;99.90
15636;DHT22;7917;50.818;6.972;2023-08-17T05:10:37;18.40;99.90
15636;DHT22;7917;50.818;6.972;2023-08-17T05:13:04;18.40;99.90
15636;DHT22;7917;50.818;6.972;2023-08-17T05:15:30;18.30;99.90
15636;DHT22;7917;50.818;6.972;2023-08-17T05:17:57;18.30;99.90
15636;DHT22;7917;50.818;6.972;2023-08-17T05:20:24;18.40;99.90
15636;DHT22;7917;50.818;6.972;2023-08-17T05:22:50;18.40;99.90
15636;DHT22;7917;50.818;6.972;2023-08-17T05:25:17;18.40;99.90
15636;DHT22;7917;50.818;6.972;2023-08-17T05:27:43;18.40;99.90
15636;DHT22;7917;50.818;6.972;2023-08-17T05:30:10;18.40;99.90
15636;DHT22;7917;50.818;6.972;2023-08-17T05:32:37;18.40;99.90
15636;DHT22;7917;50.818;6.972;2023-08-17T05:35:04;18.40;99.90
15636;DHT22;7917;50.818;6.972;2023-08-17T05:37:31;18.40;99.90
15636;DHT22;7917;50.818;6.972;2023-08-17T05:39:57;18.40;99.90
15636;DHT22;7917;50.818;6.972;2023-08-17T05:42:24;18.40;99.90
15636;DHT22;7917;50.818;6.972;2023-08-17T05:44:50;18.40;99.90
15636;DHT22;7917;50.818;6.972;2023-08-17T05:47:17;18.40;99.90
15636;DHT22;7917;50.818;6.972;2023-08-17T05:49:45;18.40;99.90
15636;DHT22;7917;50.818;6.972;2023-08-17T05:52:12;18.40;99.90
15636;DHT22;7917;50.818;6.972;2023-08-17T05:54:39;18.30;99.90
15636;DHT22;7917;50.818;6.972;2023-08-17T05:57:06;18.40;99.90
15636;DHT22;7917;50.818;6.972;2023-08-17T05:59:32;18.30;99.90
15636;DHT22;7917;50.818;6.972;2023-08-17T06:01:59;18.30;99.90
15636;DHT22;7917;50.818;6.972;2023-08-17T06:04:25;18.40;99.90
15636;DHT22;7917;50.818;6.972;2023-08-17T06:06:51;18.30;99.90
15636;DHT22;7917;50.818;6.972;2023-08-17T06:09:18;18.30;99.90
15636;DHT22;7917;50.818;6.972;2023-08-17T06:11:45;18.40;99.90
15636;DHT22;7917;50.818;6.972;2023-08-17T06:14:11;18.40;99.90
15636;DHT22;7917;50.818;6.972;2023-08-17T06:16:38;18.30;99.90
15636;DHT22;7917;50.818;6.972;2023-08-17T06:19:04;18.50;99.90
15636;DHT22;7917;50.818;6.972;2023-08-17T06:21:31;18.50;99.90
15636;DHT22;7917;50.818;6.972;2023-08-17T06:23:57;18.60;99.90
15636;DHT22;7917;50.818;6.972;2023-08-17T06:26:26;18.70;99.90
15636;DHT22;7917;50.818;6.972;2023-08-17T06:28:54;18.70;99.90
15636;DHT22;7917;50.818;6.972;2023-08-17T06:31:20;18.70;99.90
15636;DHT22;7917;50.818;6.972;2023-08-17T06:33:48;18.80;99.90
15636;DHT22;7917;50.818;6.972;2023-08-17T06:36:15;18.80;99.90
15636;DHT22;7917;50.818;6.972;2023-08-17T06:38:42;18.80;99.90
15636;DHT22;7917;50.818;6.972;2023-08-17T06:41:08;18.90;99.90
15636;DHT22;7917;50.818;6.972;2023-08-17T06:43:35;18.90;99.90
15636;DHT22;7917;50.818;6.972;2023-08-17T06:46:02;18.90;99.90
15636;DHT22;7917;50.818;6.972;2023-08-17T06:48:29;19.00;99.90
15636;DHT22;7917;50.818;6.972;2023-08-17T06:50:57;19.00;99.90
15636;DHT22;7917;50.818;6.972;2023-08-17T06:53:23;19.10;99.90
15636;DHT22;7917;50.818;6.972;2023-08-17T06:55:50;19.20;99.90
15636;DHT22;7917;50.818;6.972;2023-08-17T06:58:16;19.20;99.90
15636;DHT22;7917;50.818;6.972;2023-08-17T07:00:43;19.30;99.90
15636;DHT22;7917;50.818;6.972;2023-08-17T07:03:10;19.30;99.90
15636;DHT22;7917;50.818;6.972;2023-08-17T07:05:37;19.40;99.90
15636;DHT22;7917;50.818;6.972;2023-08-17T07:08:04;19.40;99.90
15636;DHT22;7917;50.818;6.972;2023-08-17T07:10:30;19.50;99.90
15636;DHT22;7917;50.818;6.972;2023-08-17T07:12:57;19.50;99.90
15636;DHT22;7917;50.818;6.972;2023-08-17T07:15:24;19.60;99.90
15636;DHT22;7917;50.818;6.972;2023-08-17T07:17:50;19.70;99.90
15636;DHT22;7917;50.818;6.972;2023-08-17T07:20:18;19.70;99.90
15636;DHT22;7917;50.818;6.972;2023-08-17T07:22:44;19.90;99.90
15636;DHT22;7917;50.818;6.972;2023-08-17T07:25:10;19.90;99.90
15636;DHT22;7917;50.818;6.972;2023-08-17T07:27:37;19.90;99.90
15636;DHT22;7917;50.818;6.972;2023-08-17T07:30:04;20.00;99.90
15636;DHT22;7917;50.818;6.972;2023-08-17T07:32:34;20.10;99.90
15636;DHT22;7917;50.818;6.972;2023-08-17T07:35:02;20.10;99.90
15636;DHT22;7917;50.818;6.972;2023-08-17T07:37:30;20.30;99.90
15636;DHT22;7917;50.818;6.972;2023-08-17T07:39:58;20.20;99.90
15636;DHT22;7917;50.818;6.972;2023-08-17T07:42:25;20.30;99.90
15636;DHT22;7917;50.818;6.972;2023-08-17T07:44:52;20.40;99.90
15636;DHT22;7917;50.818;6.972;2023-08-17T07:47:18;20.30;99.90
15636;DHT22;7917;50.818;6.972;2023-08-17T07:49:45;20.30;99.90
15636;DHT22;7917;50.818;6.972;2023-08-17T07:52:11;20.30;99.90
15636;DHT22;7917;50.818;6.972;2023-08-17T07:54:44;20.30;99.90
15636;DHT22;7917;50.818;6.972;2023-08-17T07:57:11;20.40;99.90
15636;DHT22;7917;50.818;6.972;2023-08-17T07:59:37;20.60;99.90
15636;DHT22;7917;50.818;6.972;2023-08-17T08:02:04;20.60;99.90
15636;DHT22;7917;50.818;6.972;2023-08-17T08:04:30;20.70;99.90
15636;DHT22;7917;50.818;6.972;2023-08-17T08:06:57;20.70;99.90
15636;DHT22;7917;50.818;6.972;2023-08-17T08:09:24;20.60;99.90
15636;DHT22;7917;50.818;6.972;2023-08-17T08:11:51;20.70;99.90
15636;DHT22;7917;50.818;6.972;2023-08-17T08:14:18;20.90;99.90
15636;DHT22;7917;50.818;6.972;2023-08-17T08:16:45;20.80;99.90
15636;DHT22;7917;50.818;6.972;2023-08-17T08:19:11;21.00;99.90
15636;DHT22;7917;50.818;6.972;2023-08-17T08:21:38;20.90;99.90
15636;DHT22;7917;50.818;6.972;2023-08-17T08:24:09;20.80;99.90
15636;DHT22;7917;50.818;6.972;2023-08-17T08:26:36;20.80;99.90
15636;DHT22;7917;50.818;6.972;2023-08-17T08:29:04;20.90;99.90
15636;DHT22;7917;50.818;6.972;2023-08-17T08:31:30;21.00;99.90
15636;DHT22;7917;50.818;6.972;2023-08-17T08:33:57;21.00;99.90
15636;DHT22;7917;50.818;6.972;2023-08-17T08:36:25;21.00;99.90
15636;DHT22;7917;50.818;6.972;2023-08-17T08:38:51;21.20;99.90
15636;DHT22;7917;50.818;6.972;2023-08-17T08:41:19;21.20;99.90
15636;DHT22;7917;50.818;6.972;2023-08-17T08:43:46;21.40;99.90
15636;DHT22;7917;50.818;6.972;2023-08-17T08:46:14;21.30;99.90
15636;DHT22;7917;50.818;6.972;2023-08-17T08:48:44;21.40;99.90
15636;DHT22;7917;50.818;6.972;2023-08-17T08:51:13;21.60;99.90
15636;DHT22;7917;50.818;6.972;2023-08-17T08:53:44;21.50;99.90
15636;DHT22;7917;50.818;6.972;2023-08-17T08:56:12;21.80;99.90
15636;DHT22;7917;50.818;6.972;2023-08-17T08:58:42;21.90;99.90
15636;DHT22;7917;50.818;6.972;2023-08-17T09:01:10;22.00;99.90
15636;DHT22;7917;50.818;6.972;2023-08-17T09:03:38;21.80;99.90
15636;DHT22;7917;50.818;6.972;2023-08-17T09:06:05;21.80;99.90
15636;DHT22;7917;50.818;6.972;2023-08-17T09:08:32;21.70;99.90
15636;DHT22;7917;50.818;6.972;2023-08-17T09:10:58;21.80;99.90
15636;DHT22;7917;50.818;6.972;2023-08-17T09:13:25;21.80;99.90
15636;DHT22;7917;50.818;6.972;2023-08-17T09:15:51;21.90;99.90
15636;DHT22;7917;50.818;6.972;2023-08-17T09:18:19;21.90;99.90
15636;DHT22;7917;50.818;6.972;2023-08-17T09:20:47;21.90;99.90
15636;DHT22;7917;50.818;6.972;2023-08-17T09:23:15;21.90;99.90
15636;DHT22;7917;50.818;6.972;2023-08-17T09:25:44;21.80;99.90
15636;DHT22;7917;50.818;6.972;2023-08-17T09:28:13;21.60;99.90
15636;DHT22;7917;50.818;6.972;2023-08-17T09:30:54;21.50;99.90
15636;DHT22;7917;50.818;6.972;2023-08-17T09:33:23;21.60;99.90
15636;DHT22;7917;50.818;6.972;2023-08-17T09:35:50;21.60;99.90
15636;DHT22;7917;50.818;6.972;2023-08-17T09:38:17;21.50;99.90
15636;DHT22;7917;50.818;6.972;2023-08-17T09:40:44;21.40;99.90
15636;DHT22;7917;50.818;6.972;2023-08-17T09:43:11;21.40;99.90
15636;DHT22;7917;50.818;6.972;2023-08-17T09:45:39;21.40;99.90
15636;DHT22;7917;50.818;6.972;2023-08-17T09:48:06;21.30;99.90
15636;DHT22;7917;50.818;6.972;2023-08-17T09:50:35;21.30;99.90
15636;DHT22;7917;50.818;6.972;2023-08-17T09:53:12;21.30;99.90
15636;DHT22;7917;50.818;6.972;2023-08-17T09:58:06;21.30;99.90
15636;DHT22;7917;50.818;6.972;2023-08-17T10:00:34;21.30;99.90
15636;DHT22;7917;50.818;6.972;2023-08-17T10:03:02;21.20;99.90
15636;DHT22;7917;50.818;6.972;2023-08-17T10:05:31;21.20;99.90
15636;DHT22;7917;50.818;6.972;2023-08-17T10:08:01;21.40;99.90
15636;DHT22;7917;50.818;6.972;2023-08-17T10:10:30;21.40;99.90
15636;DHT22;7917;50.818;6.972;2023-08-17T10:13:04;21.50;99.90
15636;DHT22;7917;50.818;6.972;2023-08-17T10:15:37;21.60;99.90
15636;DHT22;7917;50.818;6.972;2023-08-17T10:18:12;21.80;99.90
15636;DHT22;7917;50.818;6.972;2023-08-17T10:20:44;22.00;99.90
15636;DHT22;7917;50.818;6.972;2023-08-17T10:23:15;22.00;99.90
15636;DHT22;7917;50.818;6.972;2023-08-17T10:25:44;21.90;99.90
15636;DHT22;7917;50.818;6.972;2023-08-17T10:28:12;21.90;99.90
15636;DHT22;7917;50.818;6.972;2023-08-17T10:30:39;21.80;99.90
15636;DHT22;7917;50.818;6.972;2023-08-17T10:33:06;21.90;99.90
15636;DHT22;7917;50.818;6.972;2023-08-17T10:35:33;22.00;99.90
15636;DHT22;7917;50.818;6.972;2023-08-17T10:38:02;21.80;99.90
15636;DHT22;7917;50.818;6.972;2023-08-17T10:40:35;21.90;99.90
15636;DHT22;7917;50.818;6.972;2023-08-17T10:43:02;22.00;99.90
15636;DHT22;7917;50.818;6.972;2023-08-17T10:45:30;22.00;99.90
15636;DHT22;7917;50.818;6.972;2023-08-17T10:48:24;22.20;99.90
15636;DHT22;7917;50.818;6.972;2023-08-17T10:51:04;22.50;99.90
15636;DHT22;7917;50.818;6.972;2023-08-17T10:53:35;22.70;99.90
15636;DHT22;7917;50.818;6.972;2023-08-17T10:56:07;22.70;99.90
15636;DHT22;7917;50.818;6.972;2023-08-17T10:58:38;22.80;99.90
15636;DHT22;7917;50.818;6.972;2023-08-17T11:01:10;22.90;99.90
15636;DHT22;7917;50.818;6.972;2023-08-17T11:03:37;22.90;99.90
15636;DHT22;7917;50.818;6.972;2023-08-17T11:06:17;22.80;99.90
15636;DHT22;7917;50.818;6.972;2023-08-17T11:08:54;22.80;99.90
15636;DHT22;7917;50.818;6.972;2023-08-17T11:11:22;22.80;99.90
15636;DHT22;7917;50.818;6.972;2023-08-17T11:13:50;22.90;99.90
15636;DHT22;7917;50.818;6.972;2023-08-17T11:16:18;23.00;99.90
15636;DHT22;7917;50.818;6.972;2023-08-17T11:18:46;22.90;99.90
15636;DHT22;7917;50.818;6.972;2023-08-17T11:21:13;22.70;99.90
15636;DHT22;7917;50.818;6.972;2023-08-17T11:23:41;22.40;99.90
15636;DHT22;7917;50.818;6.972;2023-08-17T11:26:08;22.10;99.90
15636;DHT22;7917;50.818;6.972;2023-08-17T11:28:35;22.20;99.90
15636;DHT22;7917;50.818;6.972;2023-08-17T11:31:07;22.30;99.90
15636;DHT22;7917;50.818;6.972;2023-08-17T11:33:35;22.00;99.90
15636;DHT22;7917;50.818;6.972;2023-08-17T11:36:05;22.00;99.90
15636;DHT22;7917;50.818;6.972;2023-08-17T11:38:33;21.90;99.90
15636;DHT22;7917;50.818;6.972;2023-08-17T11:41:01;22.00;99.90
15636;DHT22;7917;50.818;6.972;2023-08-17T11:43:29;22.00;99.90
15636;DHT22;7917;50.818;6.972;2023-08-17T11:45:56;21.90;99.90
15636;DHT22;7917;50.818;6.972;2023-08-17T11:48:24;21.90;99.90
15636;DHT22;7917;50.818;6.972;2023-08-17T11:50:52;21.90;99.90
15636;DHT22;7917;50.818;6.972;2023-08-17T11:53:18;22.10;99.90
15636;DHT22;7917;50.818;6.972;2023-08-17T11:55:45;22.20;99.90
15636;DHT22;7917;50.818;6.972;2023-08-17T11:58:12;22.50;99.90
15636;DHT22;7917;50.818;6.972;2023-08-17T12:00:41;22.70;99.90
15636;DHT22;7917;50.818;6.972;2023-08-17T12:03:13;22.80;99.90
15636;DHT22;7917;50.818;6.972;2023-08-17T12:05:41;22.90;99.90
15636;DHT22;7917;50.818;6.972;2023-08-17T12:08:09;23.10;99.90
15636;DHT22;7917;50.818;6.972;2023-08-17T12:10:37;23.00;99.90
15636;DHT22;7917;50.818;6.972;2023-08-17T12:13:04;23.20;99.90
15636;DHT22;7917;50.818;6.972;2023-08-17T12:15:31;23.40;99.90
15636;DHT22;7917;50.818;6.972;2023-08-17T12:17:59;23.40;99.90
15636;DHT22;7917;50.818;6.972;2023-08-17T12:20:27;23.70;99.90
15636;DHT22;7917;50.818;6.972;2023-08-17T12:22:56;23.90;99.90
15636;DHT22;7917;50.818;6.972;2023-08-17T12:25:24;23.90;99.90
15636;DHT22;7917;50.818;6.972;2023-08-17T12:27:51;23.80;99.90
15636;DHT22;7917;50.818;6.972;2023-08-17T12:30:28;23.90;99.90
15636;DHT22;7917;50.818;6.972;2023-08-17T12:32:55;24.00;99.90
15636;DHT22;7917;50.818;6.972;2023-08-17T12:35:22;24.20;99.90
15636;DHT22;7917;50.818;6.972;2023-08-17T12:37:51;24.00;99.90
15636;DHT22;7917;50.818;6.972;2023-08-17T12:40:18;24.00;99.90
15636;DHT22;7917;50.818;6.972;2023-08-17T12:42:45;24.10;99.90
15636;DHT22;7917;50.818;6.972;2023-08-17T12:45:12;24.30;99.90
15636;DHT22;7917;50.818;6.972;2023-08-17T12:47:39;24.30;99.90
15636;DHT22;7917;50.818;6.972;2023-08-17T12:50:07;24.50;99.90
15636;DHT22;7917;50.818;6.972;2023-08-17T12:52:34;24.80;99.90
15636;DHT22;7917;50.818;6.972;2023-08-17T12:55:01;24.50;99.90
15636;DHT22;7917;50.818;6.972;2023-08-17T12:57:28;24.70;99.90
15636;DHT22;7917;50.818;6.972;2023-08-17T12:59:55;24.90;99.90
15636;DHT22;7917;50.818;6.972;2023-08-17T13:02:22;24.80;99.90
15636;DHT22;7917;50.818;6.972;2023-08-17T13:04:52;24.90;99.90
15636;DHT22;7917;50.818;6.972;2023-08-17T13:07:19;24.90;99.90
15636;DHT22;7917;50.818;6.972;2023-08-17T13:09:45;24.70;99.90
15636;DHT22;7917;50.818;6.972;2023-08-17T13:12:12;24.90;99.90
15636;DHT22;7917;50.818;6.972;2023-08-17T13:14:40;24.80;99.90
15636;DHT22;7917;50.818;6.972;2023-08-17T13:17:06;25.00;99.90
15636;DHT22;7917;50.818;6.972;2023-08-17T13:19:33;25.00;99.90
15636;DHT22;7917;50.818;6.972;2023-08-17T13:22:00;25.10;99.90
15636;DHT22;7917;50.818;6.972;2023-08-17T13:24:28;25.10;99.90
15636;DHT22;7917;50.818;6.972;2023-08-17T13:26:55;24.90;99.90
15636;DHT22;7917;50.818;6.972;2023-08-17T13:29:23;25.20;99.90
15636;DHT22;7917;50.818;6.972;2023-08-17T13:31:50;25.20;99.90
15636;DHT22;7917;50.818;6.972;2023-08-17T13:34:17;25.70;99.90
15636;DHT22;7917;50.818;6.972;2023-08-17T13:36:44;25.80;99.90
15636;DHT22;7917;50.818;6.972;2023-08-17T13:39:11;26.00;99.90
15636;DHT22;7917;50.818;6.972;2023-08-17T13:41:37;25.90;99.90
15636;DHT22;7917;50.818;6.972;2023-08-17T13:44:05;26.10;99.90
15636;DHT22;7917;50.818;6.972;2023-08-17T13:46:31;26.10;99.90
15636;DHT22;7917;50.818;6.972;2023-08-17T13:48:59;26.10;99.90
15636;DHT22;7917;50.818;6.972;2023-08-17T13:51:25;26.00;99.90
15636;DHT22;7917;50.818;6.972;2023-08-17T13:53:52;26.00;99.90
15636;DHT22;7917;50.818;6.972;2023-08-17T13:56:19;26.10;99.90
15636;DHT22;7917;50.818;6.972;2023-08-17T13:58:46;26.30;99.90
15636;DHT22;7917;50.818;6.972;2023-08-17T14:01:13;26.50;99.90
15636;DHT22;7917;50.818;6.972;2023-08-17T14:03:40;26.50;99.90
15636;DHT22;7917;50.818;6.972;2023-08-17T14:06:09;26.50;99.90
15636;DHT22;7917;50.818;6.972;2023-08-17T14:08:35;26.40;99.90
15636;DHT22;7917;50.818;6.972;2023-08-17T14:11:02;26.10;99.90
15636;DHT22;7917;50.818;6.972;2023-08-17T14:13:28;25.70;99.90
15636;DHT22;7917;50.818;6.972;2023-08-17T14:15:55;25.30;99.90
15636;DHT22;7917;50.818;6.972;2023-08-17T14:18:24;25.20;99.90
15636;DHT22;7917;50.818;6.972;2023-08-17T14:20:51;25.10;99.90
15636;DHT22;7917;50.818;6.972;2023-08-17T14:23:18;24.80;99.90
15636;DHT22;7917;50.818;6.972;2023-08-17T14:25:45;25.00;99.90
15636;DHT22;7917;50.818;6.972;2023-08-17T14:28:12;25.50;99.90
15636;DHT22;7917;50.818;6.972;2023-08-17T14:30:38;25.80;99.90
15636;DHT22;7917;50.818;6.972;2023-08-17T14:33:05;26.10;99.90
15636;DHT22;7917;50.818;6.972;2023-08-17T14:35:32;26.10;99.90
15636;DHT22;7917;50.818;6.972;2023-08-17T14:37:59;26.70;99.90
15636;DHT22;7917;50.818;6.972;2023-08-17T14:40:28;27.20;99.90
15636;DHT22;7917;50.818;6.972;2023-08-17T14:42:55;27.00;99.90
15636;DHT22;7917;50.818;6.972;2023-08-17T14:45:22;26.70;99.90
15636;DHT22;7917;50.818;6.972;2023-08-17T14:47:48;26.70;99.90
15636;DHT22;7917;50.818;6.972;2023-08-17T14:50:15;27.00;99.90
15636;DHT22;7917;50.818;6.972;2023-08-17T14:52:42;27.60;99.90
15636;DHT22;7917;50.818;6.972;2023-08-17T14:55:09;27.10;99.90
15636;DHT22;7917;50.818;6.972;2023-08-17T14:57:37;26.70;99.90
15636;DHT22;7917;50.818;6.972;2023-08-17T15:00:05;26.20;99.90
15636;DHT22;7917;50.818;6.972;2023-08-17T15:02:32;25.60;99.90
15636;DHT22;7917;50.818;6.972;2023-08-17T15:04:58;25.20;99.90
15636;DHT22;7917;50.818;6.972;2023-08-17T15:07:25;25.00;99.90
15636;DHT22;7917;50.818;6.972;2023-08-17T15:09:52;25.10;99.90
15636;DHT22;7917;50.818;6.972;2023-08-17T15:12:19;25.00;99.90
15636;DHT22;7917;50.818;6.972;2023-08-17T15:14:46;24.90;99.90
15636;DHT22;7917;50.818;6.972;2023-08-17T15:17:13;24.90;99.90
15636;DHT22;7917;50.818;6.972;2023-08-17T15:19:40;24.80;99.90
15636;DHT22;7917;50.818;6.972;2023-08-17T15:22:07;24.80;99.90
15636;DHT22;7917;50.818;6.972;2023-08-17T15:24:34;25.00;99.90
15636;DHT22;7917;50.818;6.972;2023-08-17T15:27:02;24.70;99.90
15636;DHT22;7917;50.818;6.972;2023-08-17T15:29:29;24.70;99.90
15636;DHT22;7917;50.818;6.972;2023-08-17T15:31:56;24.70;99.90
15636;DHT22;7917;50.818;6.972;2023-08-17T15:34:23;24.80;99.90
15636;DHT22;7917;50.818;6.972;2023-08-17T15:36:50;24.40;99.90
15636;DHT22;7917;50.818;6.972;2023-08-17T15:39:16;24.20;99.90
15636;DHT22;7917;50.818;6.972;2023-08-17T15:41:43;24.10;99.90
15636;DHT22;7917;50.818;6.972;2023-08-17T15:44:10;24.00;99.90
15636;DHT22;7917;50.818;6.972;2023-08-17T15:46:36;24.00;99.90
15636;DHT22;7917;50.818;6.972;2023-08-17T15:49:04;24.00;99.90
15636;DHT22;7917;50.818;6.972;2023-08-17T15:51:31;24.10;99.90
15636;DHT22;7917;50.818;6.972;2023-08-17T15:53:58;24.20;99.90